Helenwood, Tennessee
Current Conditions -  °F | °C
As of 10:53 AM on Sunday 21 Dec 2014 (Local Time) from KOQT Reporting Station
Overcast Overcast  
Wind Chill: 38°   Ceiling: 4000
Heat Index: 42°   Visibility: 10mi
Dew Point: 30°   Wind: 6mph
Humidity: 62%   Direction: 60°ENE
Pressure: 30.27"   Gusts: NA
Location:  36.43°N, 84.54°W
Report Text: KOQT 211553Z AUTO 06005KT 10SM OVC040 06/M01 A3027 RMK AO2 SLP261 T00561011
Loading
Personal Weather Stations






























Interactive Weather Map New forecast layout! Learn more

10-Day Weather Forecast

Advertisements
Track Severe Weather on mobile